Etusivu
METAR-TAF:

METAR-TAF

Lentoasemat :

Skavstan lentoasema

Tukholma-Skavsta, Ruotsi

Leveyspiiri: 58-47N, Pituuspiiri: 016-55E, korkeus merenpinnasta: 43 m

Tämänhetkinen sää

Tämä raportti tehtiin 14 minuuttia sitten, kello 11.50 UTC
Tuuli 12 kn luoteesta, vaihdellen lännen ja pohjoisen/luoteen välillä
Lämpötila 13°C
Kosteus 54%
Ilmanpaine 1000 hPa
Näkyvyys 10 km tai enemmän
Hajanaisia pilviä 4000 ft:n korkeudessa

METAR: ESKN 231150Z 31012KT 270V340 9999 SCT040 13/04 Q1000

Aika: 14:04 (12:04 UTC)

Sääennuste

Tämä raportti tehtiin 34 minuuttia sitten, kello 11.30 UTC
Ennuste voimassa 23. päivästä klo 12 UTC - 24. päivään klo 12 UTC
Tuuli 12 kn lännestä/luoteesta
Näkyvyys 10 km tai enemmän
Hajanaisia pilviä 3500 ft:n korkeudessa
Ajoittain
23. päivästä klo 12 UTC - 23. päivään klo 14 UTC
Hajanaisia pilviä 4500 ft:n korkeudessa, Kasvava cumulus-pilvi.

TAF: ESKN 231130Z 2312/2412 29012KT 9999 SCT035 TEMPO 2312/2314 SCT045TCU

Säähavainnot ja -ennusteet yli 4000 lentoasemalta (METAR- ja TAF-raportit).

Käytössä olevat sääasemat on merkitty karttaan keltaisilla ja punaisilla pisteillä.

Aseta hiiri pisteen päälle nähdäksesi sääaseman nimen.

Klikkaa sitten nähdäksesi säähavainnot ja -ennusteet.

Kartan vaihtaminen: klikkaa mustalla rastilla varustettuja vihreitä pisteitä, niin voit zoomata sisään; viivalla varustettua vihreää pistettä, niin voit zoomata ulos tai vihreitä nuolia, niin pääset viereisille kartoille.


METAR-TAF: